Terminal Aerodrome Forecast
Issued by NWS

Home | Current Version | Previous Version | Text Only | Print | Product List | Glossary Off
Versions: 1 2 3 4 5 6 7 8 9 10 11 12 13 14 15 16 17

000
FTUS43 KGRB 280240 AAB
TAFCWA
TAF AMD
KCWA 280240Z 2803/2824 10008KT 5SM BR SCT005 OVC040
      TEMPO 2803/2806 1SM BR BKN005
     FM280800 14004KT 3SM BR OVC003
     FM281400 16008KT 3SM BR OVC003
     FM281500 17009KT P6SM VCSH OVC003
     FM281800 18010KT P6SM VCSH BKN035
      AMD LTD TO CLD VIS AND WIND TIL 281100=

USA.gov is the U.S. government's official web portal to all federal, state and local government web resources and services.